Etusivu
METAR-TAF:

METAR-TAF

Lentoasemat :

Ortonville Municipal Airport (Martinson Field)

Ortonville, Minnesota, Yhdysvallat

Leveyspiiri: 45-18-20N, Pituuspiiri: 096-25-28W, korkeus merenpinnasta: 335 m

Tämänhetkinen sää

Tämä raportti tehtiin 26 minuuttia sitten, kello 09.15 UTC
Tuuli 7 kn luoteesta
Lämpötila 5°C
Kosteus 70%
Ilmanpaine 1019 hPa
Näkyvyys: 16.1 km
selkeää

METAR: KVVV 260915Z AUTO 31007KT 10SM CLR 05/00 A3010 RMK AO2

Aika: 04:41 (09:41 UTC)


TAF: puuttuu

Säähavainnot ja -ennusteet yli 4000 lentoasemalta (METAR- ja TAF-raportit).

Käytössä olevat sääasemat on merkitty karttaan keltaisilla ja punaisilla pisteillä.

Aseta hiiri pisteen päälle nähdäksesi sääaseman nimen.

Klikkaa sitten nähdäksesi säähavainnot ja -ennusteet.

Kartan vaihtaminen: klikkaa mustalla rastilla varustettuja vihreitä pisteitä, niin voit zoomata sisään; viivalla varustettua vihreää pistettä, niin voit zoomata ulos tai vihreitä nuolia, niin pääset viereisille kartoille.


METAR-TAF: